createdAt,value
2019-04-30T00:00:45.451Z,55.64
2019-04-30T00:03:25.147Z,52.56
2019-04-30T00:05:57.295Z,52.97
2019-04-30T00:08:25.826Z,54.06
2019-04-30T00:10:55.502Z,54.71
2019-04-30T00:13:25.882Z,54.41
2019-04-30T00:15:58.719Z,54.11
2019-04-30T00:18:25.442Z,54.72
2019-04-30T00:20:55.335Z,54.41
2019-04-30T00:23:29.317Z,54.26
2019-04-30T00:25:59.203Z,53.08
2019-04-30T00:28:25.584Z,53.96
2019-04-30T00:30:56.163Z,54.92
2019-04-30T00:33:27.461Z,54.83
2019-04-30T00:35:57.976Z,55.32
2019-04-30T00:38:29.482Z,55.87
2019-04-30T00:40:57.710Z,56.99
2019-04-30T00:43:26.303Z,57.36
2019-04-30T00:45:55.340Z,55.90
2019-04-30T00:48:29.536Z,53.90
2019-04-30T00:50:55.778Z,53.84
2019-04-30T00:53:26.213Z,54.06
2019-04-30T00:55:57.156Z,54.93
2019-04-30T00:58:30.267Z,56.27
2019-04-30T01:01:15.248Z,56.47
2019-04-30T01:03:49.292Z,54.51
2019-04-30T01:06:17.183Z,53.87
2019-04-30T01:08:46.745Z,54.99
2019-04-30T01:11:15.596Z,56.11
2019-04-30T01:13:50.231Z,55.84
2019-04-30T01:16:14.661Z,55.87
2019-04-30T01:18:43.286Z,56.60
2019-04-30T01:21:11.928Z,56.90
2019-04-30T01:23:47.875Z,57.68
2019-04-30T01:26:11.218Z,57.86
2019-04-30T01:28:39.854Z,58.57
2019-04-30T01:31:09.002Z,59.12
2019-04-30T01:33:38.985Z,58.07
2019-04-30T01:36:09.590Z,58.07
2019-04-30T01:38:40.017Z,59.74
2019-04-30T01:41:09.484Z,58.41
2019-04-30T01:43:38.657Z,57.46
2019-04-30T01:46:11.155Z,60.06
2019-04-30T01:48:39.325Z,59.76
2019-04-30T01:51:08.957Z,58.84
2019-04-30T01:53:38.684Z,58.97
2019-04-30T01:56:15.051Z,58.69
2019-04-30T01:58:49.488Z,58.76
2019-04-30T02:01:19.952Z,57.21
2019-04-30T02:03:48.785Z,58.32
2019-04-30T02:06:19.572Z,58.04
2019-04-30T02:08:49.393Z,58.24
2019-04-30T02:11:19.007Z,57.80
2019-04-30T02:13:49.203Z,58.53
2019-04-30T02:16:20.745Z,58.28
2019-04-30T02:18:49.500Z,58.71
2019-04-30T02:21:19.428Z,55.18
2019-04-30T02:23:49.281Z,56.66
2019-04-30T02:26:18.730Z,56.85
2019-04-30T02:28:49.463Z,57.15
2019-04-30T02:31:22.307Z,57.65
2019-04-30T02:33:50.377Z,57.47
2019-04-30T02:36:40.307Z,58.84
2019-04-30T02:39:11.111Z,59.69
2019-04-30T02:41:41.240Z,57.61
2019-04-30T02:44:11.254Z,58.23
2019-04-30T02:46:41.781Z,58.11
2019-04-30T02:49:12.433Z,57.08
2019-04-30T02:51:42.890Z,57.44
2019-04-30T02:54:23.679Z,57.35
2019-04-30T02:56:51.857Z,57.98
2019-04-30T02:59:20.482Z,56.58
2019-04-30T03:01:50.262Z,57.44
2019-04-30T03:04:19.743Z,58.16
2019-04-30T03:06:50.220Z,59.07
2019-04-30T03:09:20.272Z,59.93
2019-04-30T03:11:50.160Z,60.78
2019-04-30T03:14:20.086Z,62.24
2019-04-30T03:17:00.106Z,63.06
2019-04-30T03:19:33.542Z,63.48
2019-04-30T03:22:03.796Z,63.84
2019-04-30T03:24:32.555Z,63.86
2019-04-30T03:27:01.192Z,64.72
2019-04-30T03:29:30.451Z,64.51
2019-04-30T03:32:02.519Z,64.45
2019-04-30T03:34:32.593Z,65.32
2019-04-30T03:37:02.064Z,66.00
2019-04-30T03:39:33.648Z,65.81
2019-04-30T03:42:00.641Z,66.48
2019-04-30T03:44:32.262Z,65.97
2019-04-30T03:46:59.644Z,65.30
2019-04-30T03:49:29.933Z,65.94
2019-04-30T03:51:59.782Z,66.15
2019-04-30T03:54:29.396Z,65.75
2019-04-30T03:57:00.724Z,65.85
2019-04-30T03:59:30.229Z,65.20
2019-04-30T04:02:00.729Z,64.81
2019-04-30T04:04:52.101Z,65.03
2019-04-30T04:07:20.304Z,64.29
2019-04-30T04:09:59.871Z,64.47
2019-04-30T04:12:30.286Z,63.78
2019-04-30T04:15:03.219Z,62.71
2019-04-30T04:17:31.425Z,61.42
2019-04-30T04:20:00.060Z,61.63
2019-04-30T04:22:30.599Z,59.96
2019-04-30T04:24:59.973Z,59.87
2019-04-30T04:27:30.180Z,60.29
2019-04-30T04:30:01.079Z,58.29
2019-04-30T04:32:30.810Z,57.21
2019-04-30T04:35:00.405Z,57.12
2019-04-30T04:37:30.142Z,57.04
2019-04-30T04:39:59.671Z,56.29
2019-04-30T04:42:29.951Z,57.58
2019-04-30T04:44:59.555Z,57.20
2019-04-30T04:47:30.842Z,58.22
2019-04-30T04:50:00.741Z,56.07
2019-04-30T04:52:31.650Z,53.76
2019-04-30T04:55:00.410Z,53.62
2019-04-30T04:57:30.535Z,53.99
2019-04-30T05:00:06.416Z,52.75
2019-04-30T05:02:40.365Z,53.00
2019-04-30T05:05:09.798Z,53.46
2019-04-30T05:07:39.953Z,54.25
2019-04-30T05:10:09.270Z,52.69
2019-04-30T05:12:39.826Z,52.75
2019-04-30T05:15:09.465Z,53.05
2019-04-30T05:17:39.726Z,52.88
2019-04-30T05:20:09.983Z,53.00
2019-04-30T05:22:39.165Z,52.98
2019-04-30T05:25:08.809Z,53.15
2019-04-30T05:27:39.228Z,53.20
2019-04-30T05:30:11.761Z,52.60
2019-04-30T05:32:39.240Z,53.13
2019-04-30T05:35:09.589Z,51.18
2019-04-30T05:37:38.621Z,50.16
2019-04-30T05:40:09.247Z,49.31
2019-04-30T05:42:38.742Z,48.52
2019-04-30T05:45:09.468Z,47.94
2019-04-30T05:47:38.878Z,46.70
2019-04-30T05:50:09.031Z,46.62
2019-04-30T05:52:39.717Z,45.32
2019-04-30T05:55:08.796Z,44.52
2019-04-30T05:57:40.807Z,45.35
2019-04-30T06:00:09.917Z,44.75
2019-04-30T06:02:39.917Z,45.23
2019-04-30T06:05:08.941Z,44.46
2019-04-30T06:07:39.396Z,43.62
2019-04-30T06:10:10.094Z,44.75
2019-04-30T06:12:55.471Z,44.57
2019-04-30T06:15:44.155Z,45.27
2019-04-30T06:18:14.000Z,43.12
2019-04-30T06:20:42.890Z,43.42
2019-04-30T06:23:11.523Z,41.77
2019-04-30T06:25:55.802Z,40.94
2019-04-30T06:28:10.853Z,37.80
2019-04-30T06:30:39.875Z,37.89
2019-04-30T06:33:11.418Z,37.89
2019-04-30T06:35:39.268Z,38.63
2019-04-30T06:38:08.560Z,39.55
2019-04-30T06:40:39.075Z,38.72
2019-04-30T06:43:09.136Z,38.64
2019-04-30T06:45:38.813Z,38.92
2019-04-30T06:48:09.026Z,38.96
2019-04-30T06:50:39.358Z,37.12
2019-04-30T06:53:09.349Z,39.59
2019-04-30T06:55:39.165Z,40.95
2019-04-30T06:58:14.665Z,42.08
2019-04-30T07:00:40.049Z,42.40
2019-04-30T07:03:09.767Z,42.75
2019-04-30T07:05:39.240Z,43.75
2019-04-30T07:08:15.531Z,45.34
2019-04-30T07:10:55.009Z,46.96
2019-04-30T07:13:19.076Z,47.45
2019-04-30T07:15:49.004Z,47.31
2019-04-30T07:18:18.985Z,47.86
2019-04-30T07:20:48.631Z,46.98
2019-04-30T07:23:18.806Z,47.86
2019-04-30T07:25:49.303Z,48.59
2019-04-30T07:28:19.075Z,47.42
2019-04-30T07:30:49.480Z,48.88
2019-04-30T07:33:20.746Z,49.88
2019-04-30T07:35:49.888Z,50.52
2019-04-30T07:38:19.342Z,51.17
2019-04-30T07:40:49.306Z,50.20
2019-04-30T07:43:18.983Z,51.01
2019-04-30T07:45:49.597Z,50.25
2019-04-30T07:48:21.137Z,49.00
2019-04-30T07:50:51.473Z,46.61
2019-04-30T07:53:18.907Z,47.78
2019-04-30T07:55:49.420Z,46.63
2019-04-30T07:58:20.520Z,45.63
2019-04-30T08:00:49.704Z,46.34
2019-04-30T08:03:26.669Z,45.90
2019-04-30T08:05:59.837Z,44.17
2019-04-30T08:08:30.180Z,44.95
2019-04-30T08:10:59.190Z,45.22
2019-04-30T08:13:31.961Z,43.72
2019-04-30T08:15:59.636Z,42.66
2019-04-30T08:18:29.487Z,39.47
2019-04-30T08:20:58.678Z,37.63
2019-04-30T08:23:34.733Z,35.19
2019-04-30T08:25:58.985Z,31.01
2019-04-30T08:28:30.114Z,31.41
2019-04-30T08:30:58.917Z,28.96
2019-04-30T08:33:29.253Z,28.82
2019-04-30T08:36:00.770Z,28.26
2019-04-30T08:38:30.038Z,28.27
2019-04-30T08:41:00.830Z,29.04
2019-04-30T08:43:29.343Z,27.94
2019-04-30T08:45:59.482Z,27.71
2019-04-30T08:48:43.857Z,27.50
2019-04-30T08:50:59.544Z,27.52
2019-04-30T08:53:32.841Z,24.63
2019-04-30T08:55:59.160Z,22.57
2019-04-30T08:58:29.229Z,20.33
2019-04-30T09:00:58.775Z,17.83
2019-04-30T09:03:29.480Z,18.70
2019-04-30T09:05:59.607Z,17.84
2019-04-30T09:08:29.446Z,18.24
2019-04-30T09:10:59.518Z,19.32
2019-04-30T09:13:28.767Z,20.94
2019-04-30T09:15:59.350Z,23.07
2019-04-30T09:18:29.214Z,24.45
2019-04-30T09:21:04.213Z,25.98
2019-04-30T09:23:43.022Z,29.00
2019-04-30T09:25:58.714Z,29.75
2019-04-30T09:28:29.347Z,30.85
2019-04-30T09:30:58.670Z,28.98
2019-04-30T09:33:29.268Z,25.57
2019-04-30T09:35:59.514Z,24.93
2019-04-30T09:38:29.051Z,20.79
2019-04-30T09:40:59.449Z,20.51
2019-04-30T09:43:28.701Z,15.10
2019-04-30T09:45:59.147Z,12.63
2019-04-30T09:48:30.338Z,11.60
2019-04-30T09:51:00.476Z,11.62
2019-04-30T09:53:29.719Z,9.44
2019-04-30T09:55:59.621Z,11.43
2019-04-30T09:58:30.002Z,13.37
2019-04-30T10:00:59.318Z,14.32
2019-04-30T10:03:30.260Z,16.76
2019-04-30T10:05:59.057Z,17.25
2019-04-30T10:08:30.338Z,19.77
2019-04-30T10:11:00.198Z,22.83
2019-04-30T10:13:28.824Z,27.40
2019-04-30T10:16:05.160Z,29.02
2019-04-30T10:18:33.861Z,32.25
2019-04-30T10:21:02.491Z,34.76
2019-04-30T10:23:31.119Z,36.73
2019-04-30T10:25:59.764Z,38.21
2019-04-30T10:28:28.703Z,37.32
2019-04-30T10:30:57.357Z,32.91
2019-04-30T10:33:25.987Z,32.65
2019-04-30T10:35:54.616Z,31.87
2019-04-30T10:38:23.456Z,29.79
2019-04-30T10:40:52.078Z,29.74
2019-04-30T10:43:20.652Z,30.45
2019-04-30T10:45:49.284Z,31.83
2019-04-30T10:48:18.061Z,32.07
2019-04-30T10:50:46.690Z,34.27
2019-04-30T10:53:15.616Z,36.72
2019-04-30T10:55:44.311Z,36.91
2019-04-30T10:58:15.379Z,36.01
2019-04-30T11:00:43.376Z,34.66
2019-04-30T11:03:19.914Z,32.27
2019-04-30T11:05:42.409Z,28.15
2019-04-30T11:08:11.233Z,27.91
2019-04-30T11:10:40.112Z,26.26
2019-04-30T11:13:08.775Z,24.22
2019-04-30T11:15:39.303Z,25.59
2019-04-30T11:18:07.880Z,24.16
2019-04-30T11:20:36.705Z,24.76
2019-04-30T11:23:14.253Z,24.91
2019-04-30T11:25:37.112Z,25.92
2019-04-30T11:28:06.750Z,25.41
2019-04-30T11:30:36.437Z,24.79
2019-04-30T11:33:05.395Z,27.56
2019-04-30T11:35:34.241Z,28.33
2019-04-30T11:38:20.490Z,27.46
2019-04-30T11:40:48.659Z,29.44
2019-04-30T11:43:18.227Z,29.59
2019-04-30T11:45:58.679Z,31.09
2019-04-30T11:48:28.870Z,31.04
2019-04-30T11:50:59.432Z,29.14
2019-04-30T11:53:30.647Z,30.15
2019-04-30T11:55:59.167Z,30.04
2019-04-30T11:58:30.401Z,32.31
2019-04-30T12:00:59.294Z,30.45
2019-04-30T12:03:28.659Z,31.83
2019-04-30T12:05:58.945Z,32.00
2019-04-30T12:08:29.423Z,31.98
2019-04-30T12:11:02.472Z,30.61
2019-04-30T12:13:31.986Z,31.57
2019-04-30T12:18:28.583Z,33.80
2019-04-30T12:20:57.224Z,32.84
2019-04-30T12:23:25.859Z,35.29
2019-04-30T12:25:54.601Z,33.76
2019-04-30T12:28:23.243Z,31.00
2019-04-30T12:30:51.881Z,32.05
2019-04-30T12:33:20.501Z,33.17
2019-04-30T12:35:51.340Z,32.76
2019-04-30T12:38:19.475Z,32.09
2019-04-30T12:40:48.218Z,33.26
2019-04-30T12:43:16.873Z,31.81
2019-04-30T12:45:45.541Z,31.93
2019-04-30T12:48:20.283Z,31.86
2019-04-30T12:50:53.532Z,30.81
2019-04-30T12:53:23.798Z,33.36
2019-04-30T12:56:06.549Z,32.34
2019-04-30T12:58:35.377Z,30.84
2019-04-30T13:01:04.188Z,28.35
2019-04-30T13:03:32.767Z,26.57
2019-04-30T13:06:02.527Z,26.51
2019-04-30T13:08:32.379Z,27.71
2019-04-30T13:11:01.970Z,26.96
2019-04-30T13:13:32.168Z,26.94
2019-04-30T13:16:01.162Z,27.05
2019-04-30T13:18:29.806Z,27.33
2019-04-30T13:20:58.952Z,27.18
2019-04-30T13:23:29.783Z,26.50
2019-04-30T13:26:00.857Z,25.63
2019-04-30T13:28:30.638Z,25.76
2019-04-30T13:30:59.408Z,24.97
2019-04-30T13:33:29.692Z,23.24
2019-04-30T13:35:58.899Z,23.59
2019-04-30T13:38:29.290Z,24.22
2019-04-30T13:40:59.581Z,25.05
2019-04-30T13:43:45.014Z,24.51
2019-04-30T13:46:13.661Z,24.28
2019-04-30T13:48:42.280Z,26.14
2019-04-30T13:51:10.927Z,25.24
2019-04-30T13:53:39.645Z,23.01
2019-04-30T13:56:08.889Z,24.11
2019-04-30T13:58:37.581Z,23.19
2019-04-30T14:01:06.481Z,23.72
2019-04-30T14:03:36.758Z,23.18
2019-04-30T14:06:06.456Z,23.08
2019-04-30T14:08:51.813Z,23.94
2019-04-30T14:11:20.439Z,25.56
2019-04-30T14:13:49.197Z,22.98
2019-04-30T14:16:17.896Z,24.13
2019-04-30T14:18:48.675Z,23.04
2019-04-30T14:21:16.884Z,22.23
2019-04-30T14:23:47.300Z,22.08
2019-04-30T14:26:15.932Z,23.99
2019-04-30T14:28:46.617Z,23.04
2019-04-30T14:31:15.007Z,23.26
2019-04-30T14:33:43.639Z,23.57
2019-04-30T14:36:13.723Z,23.67
2019-04-30T14:38:42.348Z,24.33
2019-04-30T14:41:11.907Z,26.27
2019-04-30T14:43:44.231Z,24.98
2019-04-30T14:46:33.718Z,24.28
2019-04-30T14:49:10.057Z,24.50
2019-04-30T14:51:37.670Z,25.78
2019-04-30T14:54:09.529Z,25.84
2019-04-30T14:56:51.847Z,25.33
2019-04-30T14:59:39.037Z,25.00
2019-04-30T15:02:29.577Z,24.78
2019-04-30T15:04:58.735Z,26.07
2019-04-30T15:07:29.446Z,29.66
2019-04-30T15:09:59.487Z,32.17
2019-04-30T15:12:29.447Z,32.88
2019-04-30T15:14:59.787Z,34.15
2019-04-30T15:17:28.417Z,30.28
2019-04-30T15:19:58.950Z,26.92
2019-04-30T15:22:29.287Z,26.60
2019-04-30T15:24:59.170Z,32.56
2019-04-30T15:27:29.096Z,34.25
2019-04-30T15:30:00.509Z,35.33
2019-04-30T15:32:30.627Z,36.87
2019-04-30T15:34:59.338Z,34.92
2019-04-30T15:37:28.741Z,37.46
2019-04-30T15:39:59.274Z,35.82
2019-04-30T15:42:28.026Z,37.38
2019-04-30T15:44:56.666Z,36.08
2019-04-30T15:47:25.288Z,36.53
2019-04-30T15:49:53.934Z,36.86
2019-04-30T15:52:24.203Z,37.68
2019-04-30T15:54:52.839Z,38.02
2019-04-30T15:57:21.517Z,38.36
2019-04-30T15:59:50.108Z,38.02
2019-04-30T16:02:23.139Z,38.26
2019-04-30T16:05:11.735Z,36.41
2019-04-30T16:07:42.023Z,37.31
2019-04-30T16:10:28.525Z,38.35
2019-04-30T16:12:58.958Z,37.65
2019-04-30T16:15:31.784Z,38.33
2019-04-30T16:18:02.052Z,39.03
2019-04-30T16:20:32.072Z,39.64
2019-04-30T16:23:00.827Z,39.47
2019-04-30T16:25:30.314Z,40.82
2019-04-30T16:27:59.260Z,41.10
2019-04-30T16:30:28.941Z,41.92
2019-04-30T16:33:19.492Z,41.55
2019-04-30T16:35:50.803Z,41.37
2019-04-30T16:38:20.763Z,41.68
2019-04-30T16:40:49.065Z,41.66
2019-04-30T16:43:18.639Z,42.38
2019-04-30T16:45:49.376Z,42.48
2019-04-30T16:48:19.425Z,42.38
2019-04-30T16:50:51.175Z,43.50
2019-04-30T16:53:24.648Z,43.12
2019-04-30T16:55:52.058Z,44.32
2019-04-30T16:58:22.061Z,44.35
2019-04-30T17:00:52.125Z,45.41
2019-04-30T17:03:28.770Z,45.76
2019-04-30T17:05:59.666Z,46.80
2019-04-30T17:08:32.831Z,46.70
2019-04-30T17:11:07.433Z,47.66
2019-04-30T17:13:38.902Z,47.93
2019-04-30T17:16:11.338Z,46.77
2019-04-30T17:18:41.708Z,48.09
2019-04-30T17:21:10.596Z,48.69
2019-04-30T17:23:39.266Z,48.68
2019-04-30T17:26:07.995Z,49.60
2019-04-30T17:28:38.613Z,49.86
2019-04-30T17:31:24.660Z,48.09
2019-04-30T17:33:53.356Z,50.22
2019-04-30T17:36:23.445Z,50.95
2019-04-30T17:38:53.722Z,51.08
2019-04-30T17:41:22.480Z,49.82
2019-04-30T17:43:51.207Z,49.89
2019-04-30T17:46:20.212Z,50.93
2019-04-30T17:48:50.498Z,52.15
2019-04-30T17:51:19.414Z,50.57
2019-04-30T17:54:07.129Z,51.92
2019-04-30T17:56:35.757Z,51.31
2019-04-30T17:59:06.813Z,51.78
2019-04-30T18:01:36.014Z,51.40
2019-04-30T18:04:04.691Z,52.41
2019-04-30T18:06:33.413Z,51.97
2019-04-30T18:09:02.116Z,52.04
2019-04-30T18:11:32.282Z,52.03
2019-04-30T18:14:00.952Z,51.02
2019-04-30T18:16:29.606Z,49.84
2019-04-30T18:19:02.844Z,51.49
2019-04-30T18:21:40.123Z,52.69
2019-04-30T18:24:19.715Z,53.31
2019-04-30T18:26:51.755Z,51.93
2019-04-30T18:29:20.411Z,51.14
2019-04-30T18:31:50.688Z,51.88
2019-04-30T18:34:19.509Z,52.89
2019-04-30T18:36:48.652Z,52.93
2019-04-30T18:39:18.916Z,54.12
2019-04-30T18:41:50.476Z,54.61
2019-04-30T18:44:20.168Z,55.27
2019-04-30T18:46:49.436Z,55.08
2019-04-30T18:49:18.734Z,55.42
2019-04-30T18:51:49.209Z,56.50
2019-04-30T18:54:18.372Z,56.13
2019-04-30T18:56:49.003Z,57.21
2019-04-30T18:59:19.517Z,56.03
2019-04-30T19:01:48.404Z,56.94
2019-04-30T19:04:18.943Z,57.41
2019-04-30T19:06:47.503Z,58.22
2019-04-30T19:09:33.084Z,58.03
2019-04-30T19:12:21.688Z,58.63
2019-04-30T19:14:54.705Z,58.54
2019-04-30T19:17:29.398Z,58.87
2019-04-30T19:19:59.685Z,59.61
2019-04-30T19:22:28.681Z,59.43
2019-04-30T19:25:00.772Z,59.28
2019-04-30T19:27:29.577Z,59.98
2019-04-30T19:29:59.451Z,59.87
2019-04-30T19:32:30.315Z,60.61
2019-04-30T19:35:00.268Z,60.51
2019-04-30T19:37:28.908Z,60.54
2019-04-30T19:39:59.256Z,60.20
2019-04-30T19:42:29.503Z,60.58
2019-04-30T19:45:08.938Z,60.71
2019-04-30T19:47:30.754Z,60.75
2019-04-30T19:49:59.517Z,60.71
2019-04-30T19:52:29.651Z,60.97
2019-04-30T19:54:58.719Z,60.62
2019-04-30T19:57:28.658Z,61.11
2019-04-30T19:59:58.690Z,61.70
2019-04-30T20:02:29.471Z,60.98
2019-04-30T20:04:59.068Z,61.14
2019-04-30T20:07:29.085Z,61.95
2019-04-30T20:10:03.470Z,61.49
2019-04-30T20:12:29.081Z,61.45
2019-04-30T20:15:00.569Z,61.47
2019-04-30T20:17:29.654Z,61.66
2019-04-30T20:19:58.894Z,61.88
2019-04-30T20:22:29.293Z,61.02
2019-04-30T20:24:59.271Z,60.58
2019-04-30T20:27:29.894Z,60.46
2019-04-30T20:29:59.249Z,61.01
2019-04-30T20:32:36.210Z,60.55
2019-04-30T20:34:59.771Z,61.01
2019-04-30T20:37:29.910Z,61.70
2019-04-30T20:40:00.108Z,61.18
2019-04-30T20:42:28.864Z,61.40
2019-04-30T20:44:58.909Z,61.59
2019-04-30T20:47:29.841Z,61.68
2019-04-30T20:49:58.005Z,61.48
2019-04-30T20:52:29.083Z,62.01
2019-04-30T20:54:57.723Z,61.82
2019-04-30T20:57:26.368Z,62.11
2019-04-30T20:59:55.006Z,62.33
2019-04-30T21:02:23.698Z,62.50
2019-04-30T21:04:52.396Z,62.39
2019-04-30T21:07:21.005Z,62.23
2019-04-30T21:09:49.669Z,62.63
2019-04-30T21:12:18.869Z,62.87
2019-04-30T21:14:48.542Z,62.65
2019-04-30T21:17:17.279Z,62.61
2019-04-30T21:19:45.906Z,62.94
2019-04-30T21:22:14.548Z,63.14
2019-04-30T21:24:43.097Z,62.89
2019-04-30T21:27:11.708Z,62.98
2019-04-30T21:29:40.397Z,63.66
2019-04-30T21:32:16.513Z,64.50
2019-04-30T21:34:46.788Z,62.56
2019-04-30T21:37:15.267Z,63.78
2019-04-30T21:39:43.916Z,63.25
2019-04-30T21:42:12.542Z,63.30
2019-04-30T21:44:41.173Z,62.71
2019-04-30T21:47:09.810Z,63.29
2019-04-30T21:49:38.455Z,63.60
2019-04-30T21:52:07.074Z,62.68
2019-04-30T21:54:38.781Z,62.97
2019-04-30T21:57:06.040Z,62.44
2019-04-30T21:59:34.695Z,61.98
2019-04-30T22:02:03.707Z,62.66
2019-04-30T22:04:32.343Z,63.44
2019-04-30T22:07:00.919Z,63.84
2019-04-30T22:09:29.727Z,63.57
2019-04-30T22:11:59.208Z,63.75
2019-04-30T22:14:27.999Z,64.43
2019-04-30T22:16:56.637Z,64.87
2019-04-30T22:19:25.333Z,63.90
2019-04-30T22:21:54.259Z,64.29
2019-04-30T22:24:24.741Z,63.97
2019-04-30T22:26:53.324Z,63.55
2019-04-30T22:29:22.010Z,63.89
2019-04-30T22:31:50.646Z,64.75
2019-04-30T22:34:19.462Z,64.63
2019-04-30T22:36:49.002Z,65.33
2019-04-30T22:39:25.360Z,65.98
2019-04-30T22:42:03.064Z,64.84
2019-04-30T22:44:31.673Z,65.34
2019-04-30T22:47:00.734Z,65.43
2019-04-30T22:49:29.447Z,64.87
2019-04-30T22:51:58.077Z,64.51
2019-04-30T22:54:26.705Z,63.82
2019-04-30T22:56:55.334Z,63.76
2019-04-30T22:59:23.964Z,64.46
2019-04-30T23:01:57.014Z,64.59
2019-04-30T23:04:42.710Z,64.63
2019-04-30T23:07:11.388Z,65.10
2019-04-30T23:09:40.016Z,66.21
2019-04-30T23:12:08.718Z,65.08
2019-04-30T23:14:37.287Z,65.46
2019-04-30T23:17:06.159Z,66.44
2019-04-30T23:19:34.752Z,65.88
2019-04-30T23:22:03.379Z,65.90
2019-04-30T23:24:32.005Z,66.23
2019-04-30T23:27:00.571Z,65.53
2019-04-30T23:29:29.276Z,65.76
2019-04-30T23:31:58.116Z,65.86
2019-04-30T23:34:26.781Z,65.82
2019-04-30T23:36:55.401Z,65.83
2019-04-30T23:39:23.955Z,65.35
2019-04-30T23:41:52.598Z,65.69
2019-04-30T23:44:21.224Z,66.18
2019-04-30T23:46:49.854Z,65.67
2019-04-30T23:49:18.518Z,66.35
2019-04-30T23:51:47.142Z,66.39
2019-04-30T23:54:15.757Z,66.23
2019-04-30T23:56:44.386Z,66.38
2019-04-30T23:59:13.199Z,66.83
